createdAt,value
2022-09-20T00:01:22.163Z,80.34
2022-09-20T00:03:52.480Z,80.55
2022-09-20T00:06:22.603Z,80.87
2022-09-20T00:08:51.302Z,81.13
2022-09-20T00:11:24.074Z,82.00
2022-09-20T00:13:54.851Z,83.44
2022-09-20T00:16:27.759Z,85.53
2022-09-20T00:18:57.324Z,86.03
2022-09-20T00:21:27.840Z,84.61
2022-09-20T00:23:57.724Z,83.30
2022-09-20T00:26:27.395Z,82.14
2022-09-20T00:28:56.119Z,83.24
2022-09-20T00:31:24.902Z,83.84
2022-09-20T00:34:16.370Z,83.77
2022-09-20T00:36:44.967Z,84.64
2022-09-20T00:39:14.054Z,83.20
2022-09-20T00:41:42.848Z,82.27
2022-09-20T00:44:29.754Z,81.73
2022-09-20T00:46:58.384Z,80.81
2022-09-20T00:49:28.078Z,80.52
2022-09-20T00:51:57.657Z,82.90
2022-09-20T00:54:25.785Z,82.68
2022-09-20T00:56:53.802Z,82.06
2022-09-20T00:59:25.579Z,82.03
2022-09-20T01:01:59.425Z,83.53
2022-09-20T01:04:28.058Z,82.01
2022-09-20T01:06:58.201Z,81.34
2022-09-20T01:09:26.415Z,81.26
2022-09-20T01:11:56.067Z,80.74
2022-09-20T01:14:25.678Z,80.43
2022-09-20T01:16:55.409Z,80.30
2022-09-20T01:19:29.421Z,79.96
2022-09-20T01:21:57.785Z,81.29
2022-09-20T01:24:37.081Z,80.70
2022-09-20T01:27:14.459Z,81.72
2022-09-20T01:29:48.554Z,83.58
2022-09-20T01:32:19.799Z,83.19
2022-09-20T01:34:50.096Z,82.19
2022-09-20T01:37:17.965Z,84.25
2022-09-20T01:40:18.708Z,86.54
2022-09-20T01:42:51.648Z,84.83
2022-09-20T01:45:30.319Z,85.47
2022-09-20T01:48:17.217Z,85.91
2022-09-20T01:51:04.431Z,84.65
2022-09-20T01:53:50.961Z,82.65
2022-09-20T01:56:37.872Z,82.11
2022-09-20T01:59:24.222Z,84.29
2022-09-20T02:02:02.219Z,83.73
2022-09-20T02:04:30.161Z,82.85
2022-09-20T02:07:16.862Z,83.01
2022-09-20T02:10:03.177Z,83.25
2022-09-20T02:12:40.247Z,85.79
2022-09-20T02:15:29.210Z,84.79
2022-09-20T02:18:18.836Z,83.05
2022-09-20T02:21:05.539Z,82.52
2022-09-20T02:23:39.837Z,82.66
2022-09-20T02:26:17.111Z,82.73
2022-09-20T02:28:45.077Z,81.99
2022-09-20T02:31:20.515Z,81.25
2022-09-20T02:34:15.222Z,81.69
2022-09-20T02:37:02.038Z,81.36
2022-09-20T02:39:56.220Z,81.17
2022-09-20T02:42:30.779Z,80.08
2022-09-20T02:45:10.610Z,81.47
2022-09-20T02:47:39.896Z,82.48
2022-09-20T02:50:26.424Z,82.02
2022-09-20T02:53:14.579Z,86.59
2022-09-20T02:55:42.629Z,83.16
2022-09-20T02:58:22.983Z,82.06
2022-09-20T03:00:56.243Z,83.50
2022-09-20T03:03:34.794Z,82.98
2022-09-20T03:06:08.921Z,83.72
2022-09-20T03:08:47.944Z,82.76
2022-09-20T03:11:34.877Z,80.72
2022-09-20T03:14:11.948Z,79.75
2022-09-20T03:16:52.666Z,85.73
2022-09-20T03:19:33.899Z,82.56
2022-09-20T03:22:04.538Z,80.00
2022-09-20T03:24:42.637Z,78.60
2022-09-20T03:27:10.604Z,78.54
2022-09-20T03:29:55.939Z,78.81
2022-09-20T03:32:27.027Z,78.93
2022-09-20T03:34:58.055Z,78.51
2022-09-20T03:37:28.652Z,78.50
2022-09-20T03:40:09.910Z,78.74
2022-09-20T03:42:41.855Z,78.44
2022-09-20T03:45:18.637Z,78.45
2022-09-20T03:47:49.850Z,78.66
2022-09-20T03:50:24.175Z,78.64
2022-09-20T03:52:57.839Z,78.64
2022-09-20T03:55:44.656Z,78.84
2022-09-20T03:58:31.626Z,79.16
2022-09-20T04:01:28.195Z,78.39
2022-09-20T04:04:08.584Z,77.94
2022-09-20T04:06:39.561Z,77.85
2022-09-20T04:09:13.687Z,77.85
2022-09-20T04:11:51.861Z,78.02
2022-09-20T04:14:30.050Z,78.20
2022-09-20T04:17:11.820Z,78.35
2022-09-20T04:19:42.946Z,79.04
2022-09-20T04:22:11.190Z,78.93
2022-09-20T04:24:45.645Z,79.02
2022-09-20T04:27:32.011Z,79.55
2022-09-20T04:30:09.388Z,79.65
2022-09-20T04:32:48.196Z,79.84
2022-09-20T04:35:53.767Z,80.38
2022-09-20T04:38:21.996Z,81.00
2022-09-20T04:41:18.026Z,80.73
2022-09-20T04:43:52.376Z,81.01
2022-09-20T04:46:39.260Z,81.00
2022-09-20T04:49:25.983Z,81.05
2022-09-20T04:52:17.493Z,80.97
2022-09-20T04:54:45.877Z,81.02
2022-09-20T04:57:42.952Z,80.82
2022-09-20T05:00:19.281Z,80.61
2022-09-20T05:03:05.911Z,80.53
2022-09-20T05:05:47.092Z,80.66
2022-09-20T05:08:16.250Z,80.95
2022-09-20T05:10:47.454Z,80.48
2022-09-20T05:13:34.856Z,80.75
2022-09-20T05:16:02.828Z,81.36
2022-09-20T05:18:50.358Z,81.36
2022-09-20T05:21:18.448Z,81.41
2022-09-20T05:23:46.403Z,81.29
2022-09-20T05:26:40.448Z,80.62
2022-09-20T05:29:14.833Z,79.32
2022-09-20T05:31:56.347Z,78.66
2022-09-20T05:34:32.453Z,78.58
2022-09-20T05:37:16.416Z,78.60
2022-09-20T05:39:58.470Z,80.69
2022-09-20T05:42:35.852Z,85.42
2022-09-20T05:45:23.755Z,84.86
2022-09-20T05:48:11.174Z,82.43
2022-09-20T05:50:55.726Z,80.84
2022-09-20T05:53:27.187Z,80.16
2022-09-20T05:55:58.214Z,79.75
2022-09-20T05:58:29.669Z,80.88
2022-09-20T06:00:57.698Z,80.24
2022-09-20T06:03:44.966Z,80.03
2022-09-20T06:06:17.131Z,79.76
2022-09-20T06:09:03.770Z,79.38
2022-09-20T06:11:46.835Z,79.16
2022-09-20T06:14:38.391Z,78.58
2022-09-20T06:17:19.282Z,78.41
2022-09-20T06:19:52.943Z,78.83
2022-09-20T06:22:30.257Z,78.05
2022-09-20T06:25:02.290Z,77.87
2022-09-20T06:27:33.267Z,77.56
2022-09-20T06:30:05.914Z,76.94
2022-09-20T06:32:37.326Z,77.51
2022-09-20T06:35:05.781Z,80.64
2022-09-20T06:37:58.633Z,80.39
2022-09-20T06:40:57.736Z,78.10
2022-09-20T06:43:27.497Z,77.36
2022-09-20T06:45:55.958Z,77.34
2022-09-20T06:48:25.539Z,78.01
2022-09-20T06:50:53.714Z,77.25
2022-09-20T06:53:28.494Z,78.12
2022-09-20T06:55:57.567Z,74.00
2022-09-20T06:58:26.842Z,73.97
2022-09-20T07:00:54.841Z,73.78
2022-09-20T07:03:23.151Z,74.40
2022-09-20T07:05:51.730Z,74.80
2022-09-20T07:08:19.624Z,74.76
2022-09-20T07:10:48.254Z,73.59
2022-09-20T07:13:16.454Z,73.93
2022-09-20T07:15:44.485Z,72.62
2022-09-20T07:18:12.836Z,72.94
2022-09-20T07:20:41.915Z,73.70
2022-09-20T07:23:10.342Z,75.69
2022-09-20T07:25:38.518Z,73.19
2022-09-20T07:28:06.493Z,72.02
2022-09-20T07:30:34.772Z,69.86
2022-09-20T07:33:02.773Z,71.67
2022-09-20T07:35:31.220Z,69.55
2022-09-20T07:37:59.338Z,69.90
2022-09-20T07:40:27.488Z,69.14
2022-09-20T07:42:56.494Z,69.12
2022-09-20T07:45:24.336Z,69.82
2022-09-20T07:47:53.788Z,70.19
2022-09-20T07:50:22.161Z,70.64
2022-09-20T07:52:50.071Z,71.07
2022-09-20T07:55:18.365Z,71.79
2022-09-20T07:57:46.440Z,71.12
2022-09-20T08:00:14.718Z,70.83
2022-09-20T08:02:42.994Z,70.48
2022-09-20T08:05:11.538Z,73.12
2022-09-20T08:07:39.623Z,71.58
2022-09-20T08:10:07.868Z,69.53
2022-09-20T08:15:24.764Z,68.88
2022-09-20T08:17:52.776Z,66.51
2022-09-20T08:20:20.876Z,64.78
2022-09-20T08:23:06.343Z,65.50
2022-09-20T08:25:39.688Z,66.67
2022-09-20T08:28:07.705Z,68.23
2022-09-20T08:30:35.629Z,69.04
2022-09-20T08:33:04.123Z,69.54
2022-09-20T08:35:38.221Z,68.80
2022-09-20T08:41:19.022Z,66.93
2022-09-20T08:44:06.269Z,64.85
2022-09-20T08:46:37.762Z,64.57
2022-09-20T08:49:10.872Z,64.21
2022-09-20T08:51:39.962Z,62.36
2022-09-20T08:54:12.264Z,62.10
2022-09-20T08:56:40.259Z,62.67
2022-09-20T08:59:14.277Z,63.82
2022-09-20T09:01:43.356Z,62.01
2022-09-20T09:04:16.410Z,61.29
2022-09-20T09:06:45.250Z,61.84
2022-09-20T09:09:29.456Z,62.55
2022-09-20T09:11:58.980Z,62.84
2022-09-20T09:14:50.887Z,62.34
2022-09-20T09:17:20.386Z,62.41
2022-09-20T09:19:58.961Z,61.55
2022-09-20T09:22:39.812Z,62.03
2022-09-20T09:25:19.763Z,62.22
2022-09-20T09:27:50.977Z,62.13
2022-09-20T09:30:20.569Z,62.24
2022-09-20T09:32:48.600Z,61.73
2022-09-20T09:35:28.905Z,62.10
2022-09-20T09:38:00.977Z,63.16
2022-09-20T09:40:30.206Z,62.97
2022-09-20T09:43:02.908Z,63.47
2022-09-20T09:45:41.172Z,63.84
2022-09-20T09:48:18.025Z,63.98
2022-09-20T09:50:49.469Z,64.22
2022-09-20T09:53:22.561Z,63.57
2022-09-20T09:55:58.207Z,63.00
2022-09-20T09:58:45.874Z,63.21
2022-09-20T10:01:39.714Z,63.48
2022-09-20T10:04:08.092Z,63.21
2022-09-20T10:06:41.191Z,63.53
2022-09-20T10:09:32.408Z,63.49
2022-09-20T10:12:27.197Z,65.26
2022-09-20T10:14:55.052Z,65.43
2022-09-20T10:17:34.897Z,64.87
2022-09-20T10:20:21.396Z,65.55
2022-09-20T10:23:39.297Z,64.51
2022-09-20T10:26:15.079Z,65.67
2022-09-20T10:29:01.945Z,64.56
2022-09-20T10:31:29.974Z,65.19
2022-09-20T10:34:35.599Z,64.86
2022-09-20T10:37:07.336Z,64.58
2022-09-20T10:39:37.219Z,64.94
2022-09-20T10:42:36.032Z,64.19
2022-09-20T10:45:07.506Z,63.79
2022-09-20T10:47:59.222Z,64.43
2022-09-20T10:50:39.350Z,64.96
2022-09-20T10:53:17.258Z,65.07
2022-09-20T10:55:54.645Z,64.47
2022-09-20T10:58:23.904Z,64.52
2022-09-20T11:01:06.361Z,63.50
2022-09-20T11:03:53.173Z,62.93
2022-09-20T11:06:29.935Z,62.98
2022-09-20T11:08:59.920Z,63.49
2022-09-20T11:11:34.833Z,63.10
2022-09-20T11:14:02.672Z,63.69
2022-09-20T11:16:30.564Z,64.89
2022-09-20T11:19:05.676Z,63.23
2022-09-20T11:21:44.295Z,63.58
2022-09-20T11:24:15.337Z,63.12
2022-09-20T11:26:46.816Z,63.75
2022-09-20T11:29:36.225Z,63.63
2022-09-20T11:32:24.830Z,64.04
2022-09-20T11:35:07.027Z,63.59
2022-09-20T11:37:38.275Z,64.45
2022-09-20T11:40:20.802Z,64.58
2022-09-20T11:42:50.498Z,64.73
2022-09-20T11:45:26.279Z,65.07
2022-09-20T11:48:07.496Z,64.36
2022-09-20T11:50:45.402Z,64.06
2022-09-20T11:53:17.661Z,64.79
2022-09-20T11:55:48.784Z,65.27
2022-09-20T11:58:19.189Z,64.43
2022-09-20T12:00:48.799Z,64.44
2022-09-20T12:03:22.575Z,65.19
2022-09-20T12:06:01.599Z,64.78
2022-09-20T12:08:33.993Z,64.32
2022-09-20T12:11:04.355Z,65.06
2022-09-20T12:13:35.575Z,64.31
2022-09-20T12:16:17.938Z,64.23
2022-09-20T12:18:47.392Z,64.89
2022-09-20T12:21:16.885Z,65.11
2022-09-20T12:23:44.869Z,64.97
2022-09-20T12:26:15.728Z,65.15
2022-09-20T12:28:45.137Z,64.72
2022-09-20T12:31:16.125Z,64.91
2022-09-20T12:34:10.725Z,64.90
2022-09-20T12:36:40.514Z,64.21
2022-09-20T12:39:09.772Z,64.44
2022-09-20T12:41:46.134Z,64.77
2022-09-20T12:44:26.006Z,65.46
2022-09-20T12:47:08.953Z,65.95
2022-09-20T12:49:58.995Z,66.11
2022-09-20T12:52:45.700Z,67.20
2022-09-20T12:55:30.219Z,66.66
2022-09-20T12:58:02.284Z,66.56
2022-09-20T13:00:36.419Z,66.14
2022-09-20T13:03:23.978Z,65.94
2022-09-20T13:06:15.810Z,66.39
2022-09-20T13:08:43.571Z,66.18
2022-09-20T13:11:17.002Z,65.76
2022-09-20T13:13:45.094Z,64.87
2022-09-20T13:16:22.375Z,64.88
2022-09-20T13:19:11.320Z,65.41
2022-09-20T13:21:42.572Z,65.44
2022-09-20T13:24:16.082Z,66.05
2022-09-20T13:26:45.650Z,66.18
2022-09-20T13:29:33.732Z,66.69
2022-09-20T13:32:20.443Z,67.21
2022-09-20T13:35:05.679Z,66.70
2022-09-20T13:37:34.161Z,66.59
2022-09-20T13:40:03.123Z,67.27
2022-09-20T13:42:33.639Z,68.52
2022-09-20T13:45:03.651Z,67.35
2022-09-20T13:47:32.396Z,67.50
2022-09-20T13:50:02.339Z,68.42
2022-09-20T13:52:31.542Z,68.05
2022-09-20T13:54:59.788Z,68.43
2022-09-20T13:57:29.705Z,68.45
2022-09-20T13:59:58.908Z,68.38
2022-09-20T14:02:29.834Z,69.20
2022-09-20T14:05:00.220Z,68.75
2022-09-20T14:07:29.782Z,68.28
2022-09-20T14:09:59.083Z,68.38
2022-09-20T14:12:27.925Z,68.62
2022-09-20T14:14:56.256Z,68.38
2022-09-20T14:17:25.026Z,67.93
2022-09-20T14:19:54.856Z,68.35
2022-09-20T14:22:24.673Z,68.35
2022-09-20T14:25:00.043Z,67.96
2022-09-20T14:27:29.581Z,67.79
2022-09-20T14:29:58.212Z,67.81
2022-09-20T14:32:36.841Z,67.78
2022-09-20T14:35:15.964Z,67.53
2022-09-20T14:38:01.659Z,67.19
2022-09-20T14:40:31.453Z,68.26
2022-09-20T14:43:03.862Z,67.89
2022-09-20T14:45:33.542Z,68.15
2022-09-20T14:48:09.346Z,68.50
2022-09-20T14:50:38.360Z,68.20
2022-09-20T14:53:23.414Z,67.32
2022-09-20T14:55:59.460Z,67.36
2022-09-20T14:58:27.717Z,67.66
2022-09-20T15:00:59.312Z,68.11
2022-09-20T15:03:27.274Z,68.56
2022-09-20T15:05:55.608Z,69.03
2022-09-20T15:08:23.723Z,68.69
2022-09-20T15:10:52.068Z,68.36
2022-09-20T15:13:19.910Z,68.51
2022-09-20T15:15:53.496Z,68.78
2022-09-20T15:18:34.980Z,68.67
2022-09-20T15:21:03.104Z,68.81
2022-09-20T15:23:31.255Z,68.85
2022-09-20T15:26:00.386Z,68.78
2022-09-20T15:28:28.339Z,68.51
2022-09-20T15:30:57.682Z,68.72
2022-09-20T15:33:29.514Z,68.70
2022-09-20T15:35:58.094Z,69.35
2022-09-20T15:38:27.221Z,69.55
2022-09-20T15:40:55.175Z,69.59
2022-09-20T15:43:26.872Z,70.10
2022-09-20T15:45:56.160Z,69.94
2022-09-20T15:48:25.842Z,69.46
2022-09-20T15:51:05.785Z,69.88
2022-09-20T15:53:34.518Z,71.89
2022-09-20T15:56:05.070Z,72.01
2022-09-20T15:58:36.146Z,71.23
2022-09-20T16:01:08.288Z,70.96
2022-09-20T16:03:36.737Z,70.83
2022-09-20T16:06:06.199Z,71.23
2022-09-20T16:08:35.338Z,71.35
2022-09-20T16:11:03.583Z,71.83
2022-09-20T16:13:31.655Z,72.43
2022-09-20T16:16:01.288Z,72.07
2022-09-20T16:18:48.231Z,72.85
2022-09-20T16:21:18.916Z,72.70
2022-09-20T16:23:51.490Z,72.48
2022-09-20T16:26:20.141Z,73.20
2022-09-20T16:28:49.521Z,74.36
2022-09-20T16:31:33.082Z,74.66
2022-09-20T16:34:02.832Z,76.54
2022-09-20T16:36:32.441Z,76.52
2022-09-20T16:39:01.260Z,76.04
2022-09-20T16:41:29.715Z,76.84
2022-09-20T16:43:58.007Z,77.61
2022-09-20T16:46:29.651Z,77.48
2022-09-20T16:49:00.436Z,78.96
2022-09-20T16:51:33.501Z,78.09
2022-09-20T16:54:02.574Z,79.95
2022-09-20T16:56:34.129Z,78.30
2022-09-20T16:59:02.833Z,77.73
2022-09-20T17:01:31.606Z,79.12
2022-09-20T17:03:59.679Z,78.57
2022-09-20T17:06:29.009Z,78.98
2022-09-20T17:08:59.168Z,78.84
2022-09-20T17:11:28.558Z,78.56
2022-09-20T17:13:57.402Z,79.15
2022-09-20T17:16:28.008Z,81.52
2022-09-20T17:18:58.307Z,80.01
2022-09-20T17:21:27.676Z,79.93
2022-09-20T17:23:56.970Z,80.85
2022-09-20T17:26:31.528Z,81.71
2022-09-20T17:29:00.892Z,81.08
2022-09-20T17:31:34.215Z,83.04
2022-09-20T17:34:04.169Z,81.74
2022-09-20T17:36:33.406Z,81.18
2022-09-20T17:39:04.369Z,81.14
2022-09-20T17:41:34.013Z,82.68
2022-09-20T17:44:03.055Z,83.59
2022-09-20T17:46:31.993Z,83.72
2022-09-20T17:49:01.279Z,83.41
2022-09-20T17:51:30.978Z,82.31
2022-09-20T17:54:00.366Z,80.74
2022-09-20T17:56:29.563Z,82.17
2022-09-20T17:58:59.077Z,81.38
2022-09-20T18:01:27.964Z,82.10
2022-09-20T18:03:57.760Z,82.18
2022-09-20T18:06:25.852Z,81.60
2022-09-20T18:08:55.256Z,80.86
2022-09-20T18:11:27.424Z,80.90
2022-09-20T18:13:55.456Z,82.84
2022-09-20T18:16:24.115Z,82.91
2022-09-20T18:18:52.104Z,81.44
2022-09-20T18:21:21.358Z,82.17
2022-09-20T18:23:49.839Z,82.59
2022-09-20T18:26:22.153Z,83.15
2022-09-20T18:29:01.691Z,83.49
2022-09-20T18:31:32.514Z,83.89
2022-09-20T18:34:01.179Z,83.89
2022-09-20T18:36:30.201Z,84.95
2022-09-20T18:38:59.545Z,84.73
2022-09-20T18:41:29.086Z,83.27
2022-09-20T18:43:57.683Z,82.45
2022-09-20T18:46:27.107Z,84.13
2022-09-20T18:48:57.239Z,84.24
2022-09-20T18:51:26.296Z,83.02
2022-09-20T18:53:54.660Z,82.82
2022-09-20T18:56:22.977Z,83.79
2022-09-20T18:58:55.126Z,82.59
2022-09-20T19:01:23.173Z,81.90
2022-09-20T19:04:01.407Z,81.27
2022-09-20T19:06:33.385Z,80.47
2022-09-20T19:09:04.828Z,79.80
2022-09-20T19:11:42.010Z,79.51
2022-09-20T19:14:25.549Z,79.63
2022-09-20T19:16:59.527Z,80.02
2022-09-20T19:19:31.037Z,79.69
2022-09-20T19:22:04.001Z,82.48
2022-09-20T19:24:40.166Z,82.92
2022-09-20T19:27:11.309Z,84.53
2022-09-20T19:29:39.521Z,84.11
2022-09-20T19:32:11.758Z,82.32
2022-09-20T19:34:42.968Z,83.21
2022-09-20T19:37:19.983Z,84.20
2022-09-20T19:40:03.208Z,82.22
2022-09-20T19:42:53.125Z,82.42
2022-09-20T19:45:35.406Z,83.32
2022-09-20T19:48:06.141Z,83.03
2022-09-20T19:50:45.456Z,81.57
2022-09-20T19:53:14.895Z,81.19
2022-09-20T19:55:47.278Z,80.72
2022-09-20T19:58:15.292Z,80.19
2022-09-20T20:00:44.376Z,79.78
2022-09-20T20:03:13.102Z,79.81
2022-09-20T20:05:52.731Z,81.92
2022-09-20T20:08:48.910Z,82.27
2022-09-20T20:11:35.807Z,81.59
2022-09-20T20:14:12.214Z,81.51
2022-09-20T20:16:47.035Z,81.83
2022-09-20T20:19:14.978Z,82.78
2022-09-20T20:21:52.896Z,81.86
2022-09-20T20:24:29.993Z,82.35
2022-09-20T20:26:58.141Z,82.83
2022-09-20T20:29:26.128Z,84.44
2022-09-20T20:31:54.185Z,84.73
2022-09-20T20:34:23.112Z,83.33
2022-09-20T20:36:52.501Z,81.33
2022-09-20T20:39:20.452Z,80.94
2022-09-20T20:41:52.571Z,80.87
2022-09-20T20:44:22.029Z,82.10
2022-09-20T20:46:50.927Z,81.26
2022-09-20T20:49:19.029Z,81.63
2022-09-20T20:51:47.678Z,81.89
2022-09-20T20:54:15.782Z,80.58
2022-09-20T20:56:43.937Z,80.98
2022-09-20T20:59:12.106Z,83.03
2022-09-20T21:01:45.968Z,81.96
2022-09-20T21:04:15.829Z,80.59
2022-09-20T21:06:44.213Z,80.12
2022-09-20T21:09:13.575Z,79.46
2022-09-20T21:11:44.952Z,78.85
2022-09-20T21:14:13.094Z,78.55
2022-09-20T21:16:45.753Z,78.65
2022-09-20T21:19:15.731Z,78.74
2022-09-20T21:21:44.943Z,79.08
2022-09-20T21:24:15.322Z,79.81
2022-09-20T21:26:43.439Z,80.01
2022-09-20T21:29:12.070Z,82.46
2022-09-20T21:31:41.530Z,80.42
2022-09-20T21:34:11.400Z,79.16
2022-09-20T21:36:41.608Z,78.55
2022-09-20T21:39:09.743Z,79.10
2022-09-20T21:41:38.471Z,79.00
2022-09-20T21:44:07.537Z,80.68
2022-09-20T21:46:40.382Z,82.41
2022-09-20T21:49:09.954Z,84.17
2022-09-20T21:51:38.814Z,83.96
2022-09-20T21:54:06.883Z,83.52
2022-09-20T21:56:36.025Z,84.12
2022-09-20T21:59:06.350Z,82.44
2022-09-20T22:01:36.101Z,80.51
2022-09-20T22:04:05.250Z,79.46
2022-09-20T22:06:35.139Z,80.90
2022-09-20T22:09:07.749Z,80.33
2022-09-20T22:11:39.286Z,79.70
2022-09-20T22:14:07.960Z,80.56
2022-09-20T22:16:38.124Z,79.64
2022-09-20T22:19:08.205Z,79.58
2022-09-20T22:21:37.504Z,79.60
2022-09-20T22:24:07.329Z,81.28
2022-09-20T22:26:37.033Z,84.32
2022-09-20T22:29:05.567Z,83.49
2022-09-20T22:31:35.020Z,81.67
2022-09-20T22:34:04.348Z,80.65
2022-09-20T22:36:34.303Z,80.50
2022-09-20T22:39:03.546Z,80.60
2022-09-20T22:41:31.718Z,80.76
2022-09-20T22:43:59.709Z,80.83
2022-09-20T22:46:28.886Z,81.96
2022-09-20T22:48:56.989Z,81.95
2022-09-20T22:51:29.758Z,82.58
2022-09-20T22:53:57.819Z,82.83
2022-09-20T22:56:29.537Z,82.00
2022-09-20T22:59:00.177Z,81.77
2022-09-20T23:01:32.849Z,84.52
2022-09-20T23:04:06.377Z,86.17
2022-09-20T23:06:38.412Z,85.15
2022-09-20T23:09:08.182Z,84.86
2022-09-20T23:11:36.419Z,83.78
2022-09-20T23:14:06.086Z,85.51
2022-09-20T23:16:35.770Z,85.53
2022-09-20T23:19:04.662Z,84.53
2022-09-20T23:21:33.147Z,85.03
2022-09-20T23:24:02.228Z,85.89
2022-09-20T23:26:31.079Z,86.64
2022-09-20T23:29:00.437Z,85.34
2022-09-20T23:31:29.535Z,85.91
2022-09-20T23:34:01.540Z,84.97
2022-09-20T23:36:32.543Z,86.67
2022-09-20T23:39:00.720Z,87.02
2022-09-20T23:41:29.312Z,89.06
2022-09-20T23:43:57.772Z,87.81
2022-09-20T23:46:27.088Z,86.41
2022-09-20T23:48:55.161Z,87.23
2022-09-20T23:51:24.132Z,87.64
2022-09-20T23:53:53.480Z,85.49
2022-09-20T23:56:22.332Z,84.38
2022-09-20T23:58:50.730Z,86.65
